Time;durP1;ratioP1;P1;durP2;ratioP2;P2;SDS_P1;SDS_P2;PMS_P1;PMS_P2;Temp;Humidity;BMP_temperature;BMP_pressure;BME280_temperature;BME280_humidity;BME280_pressure;Samples;Min_cycle;Max_cycle;Signal;HPM_P1;HPM_P2
2022/10/08 00:01:07;;;;;;;8.88;1.70;;;14.20;99.90;;;;;;4980450;28;20198;-81
2022/10/08 00:03:39;;;;;;;8.38;1.90;;;14.10;99.90;;;;;;4981178;28;20212;-87
2022/10/08 00:06:11;;;;;;;9.90;1.98;;;14.10;99.90;;;;;;4981209;28;20198;-77
2022/10/08 00:08:39;;;;;;;7.60;1.88;;;14.10;99.90;;;;;;4980163;28;20181;-91
2022/10/08 00:11:10;;;;;;;7.60;1.75;;;14.20;99.90;;;;;;4980585;28;20212;-86
2022/10/08 00:13:40;;;;;;;17.60;2.97;;;14.20;99.90;;;;;;4979842;28;20177;-80
2022/10/08 00:16:11;;;;;;;8.57;2.45;;;14.10;99.90;;;;;;4980039;28;20172;-92
2022/10/08 00:18:38;;;;;;;6.05;2.13;;;14.00;99.90;;;;;;4976182;28;20166;-88
2022/10/08 00:21:15;;;;;;;5.13;1.98;;;13.90;99.90;;;;;;4976817;28;20543;-87
2022/10/08 00:23:42;;;;;;;6.75;2.10;;;14.00;99.90;;;;;;4980234;28;20174;-77
2022/10/08 00:26:08;;;;;;;5.93;2.28;;;14.10;99.90;;;;;;4976410;28;20671;-84
2022/10/08 00:28:35;;;;;;;6.97;2.10;;;14.20;99.90;;;;;;4977125;28;20170;-82
2022/10/08 00:31:06;;;;;;;4.90;2.17;;;14.10;99.90;;;;;;4976938;28;20205;-90
2022/10/08 00:33:34;;;;;;;7.53;1.98;;;14.10;99.90;;;;;;4976550;28;20182;-91
2022/10/08 00:36:02;;;;;;;10.00;2.35;;;14.20;99.90;;;;;;4976590;28;20252;-92
2022/10/08 00:38:28;;;;;;;8.35;2.35;;;14.10;99.90;;;;;;4977069;28;20622;-78
2022/10/08 00:40:53;;;;;;;3.03;1.70;;;14.00;99.90;;;;;;4977486;28;20186;-92
2022/10/08 00:43:43;;;;;;;6.70;1.73;;;14.00;99.90;;;;;;4976456;28;20177;-92
2022/10/08 00:46:24;;;;;;;14.57;1.95;;;14.10;99.90;;;;;;4977252;28;20166;-91
2022/10/08 00:49:11;;;;;;;10.35;2.40;;;14.10;99.90;;;;;;4977103;28;20173;-92
2022/10/08 00:51:43;;;;;;;7.45;2.08;;;14.20;99.90;;;;;;4977238;28;20228;-91
2022/10/08 00:54:09;;;;;;;5.03;2.00;;;14.30;99.90;;;;;;4977517;28;20181;-88
2022/10/08 00:56:37;;;;;;;4.57;2.15;;;14.30;99.90;;;;;;4976985;28;20186;-79
2022/10/08 00:59:03;;;;;;;9.20;2.58;;;14.40;99.90;;;;;;4976168;28;20197;-91
2022/10/08 01:01:29;;;;;;;5.05;1.80;;;14.40;99.90;;;;;;4975939;28;20757;-85
2022/10/08 01:03:56;;;;;;;4.32;1.70;;;14.30;99.90;;;;;;4975804;28;20201;-79
2022/10/08 01:06:25;;;;;;;5.57;1.85;;;14.30;99.90;;;;;;4976494;28;20174;-91
2022/10/08 01:09:10;;;;;;;9.57;1.90;;;14.30;99.90;;;;;;4976846;28;20328;-79
2022/10/08 01:11:36;;;;;;;4.75;1.52;;;14.20;99.90;;;;;;4975966;28;20189;-78
2022/10/08 01:14:40;;;;;;;5.18;1.65;;;14.40;99.90;;;;;;4975952;28;20691;-79
2022/10/08 01:17:10;;;;;;;10.80;2.00;;;14.40;99.90;;;;;;4975661;28;20177;-78
2022/10/08 01:19:57;;;;;;;5.78;1.90;;;14.40;99.90;;;;;;4975368;28;20173;-78
2022/10/08 01:23:05;;;;;;;5.63;1.63;;;14.40;99.90;;;;;;4976173;28;20682;-91
2022/10/08 01:26:02;;;;;;;7.78;1.60;;;14.30;99.90;;;;;;4975613;28;20240;-91
2022/10/08 01:28:41;;;;;;;7.32;1.65;;;14.30;99.90;;;;;;4975401;28;20193;-90
2022/10/08 01:31:22;;;;;;;4.22;1.95;;;14.20;99.90;;;;;;4975667;28;20236;-78
2022/10/08 01:34:00;;;;;;;9.00;2.05;;;14.30;99.90;;;;;;4976247;28;20660;-77
2022/10/08 01:36:35;;;;;;;12.55;2.38;;;14.10;99.90;;;;;;4974122;28;20281;-89
2022/10/08 01:39:06;;;;;;;7.72;2.50;;;14.10;99.90;;;;;;4975365;28;20693;-91
2022/10/08 01:41:32;;;;;;;8.52;2.00;;;14.10;99.90;;;;;;4976282;28;20648;-82
2022/10/08 01:44:07;;;;;;;10.57;2.20;;;14.20;99.90;;;;;;4979574;28;20252;-91
2022/10/08 01:46:37;;;;;;;7.53;2.05;;;14.10;99.90;;;;;;4977380;28;20196;-79
2022/10/08 01:49:09;;;;;;;4.70;1.73;;;14.20;99.90;;;;;;4975531;28;20170;-91
2022/10/08 01:51:40;;;;;;;5.18;1.77;;;14.20;99.90;;;;;;4974374;28;20229;-77
2022/10/08 01:54:10;;;;;;;9.02;2.03;;;14.30;99.90;;;;;;4974818;28;20582;-78
2022/10/08 01:56:38;;;;;;;12.38;2.17;;;14.30;99.90;;;;;;4974648;28;20731;-78
2022/10/08 01:59:11;;;;;;;7.32;2.45;;;14.10;99.90;;;;;;4974559;28;20213;-77
2022/10/08 02:01:40;;;;;;;7.32;2.10;;;14.10;99.90;;;;;;4974690;28;20282;-77
2022/10/08 02:06:55;;;;;;;17.42;2.05;;;14.20;99.90;;;;;;4974989;28;20192;-91
2022/10/08 02:09:26;;;;;;;4.43;2.33;;;14.20;99.90;;;;;;4974083;28;20615;-79
2022/10/08 02:11:52;;;;;;;6.43;2.25;;;14.30;99.90;;;;;;4974065;28;20552;-77
2022/10/08 02:14:19;;;;;;;2.97;2.30;;;14.40;99.90;;;;;;4974064;28;20166;-77
2022/10/08 02:16:50;;;;;;;7.47;1.98;;;14.40;99.90;;;;;;4974071;28;20583;-77
2022/10/08 02:19:48;;;;;;;8.32;2.58;;;14.50;99.90;;;;;;4974136;28;20153;-92
2022/10/08 02:22:18;;;;;;;9.40;2.45;;;14.20;99.90;;;;;;4974633;28;20181;-92
2022/10/08 02:25:11;;;;;;;13.95;3.00;;;14.20;99.90;;;;;;4974979;28;20166;-78
2022/10/08 02:27:48;;;;;;;6.80;2.42;;;14.30;99.90;;;;;;4972859;28;20166;-78
2022/10/08 02:30:13;;;;;;;6.15;2.25;;;14.30;99.90;;;;;;4974117;28;20209;-91
2022/10/08 02:33:01;;;;;;;7.20;2.55;;;14.40;99.90;;;;;;4973363;28;20240;-90
2022/10/08 02:35:36;;;;;;;7.75;2.83;;;14.40;99.90;;;;;;4974901;28;20170;-91
2022/10/08 02:38:10;;;;;;;8.27;2.45;;;14.40;99.90;;;;;;4974594;28;20682;-77
2022/10/08 02:40:39;;;;;;;7.85;2.80;;;14.50;99.90;;;;;;4973945;28;20261;-88
2022/10/08 02:43:10;;;;;;;7.40;2.33;;;14.60;99.90;;;;;;4974691;28;20192;-84
2022/10/08 02:46:04;;;;;;;8.80;2.80;;;14.40;99.90;;;;;;4974615;28;20236;-89
2022/10/08 02:48:34;;;;;;;8.65;2.60;;;14.10;99.90;;;;;;4966148;28;20273;-77
2022/10/08 02:51:05;;;;;;;13.32;2.85;;;14.10;99.90;;;;;;4974075;28;20231;-77
2022/10/08 02:53:32;;;;;;;13.40;2.92;;;14.20;99.90;;;;;;4974327;28;20221;-88
2022/10/08 02:56:10;;;;;;;9.02;2.80;;;14.20;99.90;;;;;;4974103;28;20632;-78
2022/10/08 02:58:36;;;;;;;5.60;2.33;;;14.00;99.90;;;;;;4972935;28;20225;-78
2022/10/08 03:01:13;;;;;;;4.50;2.17;;;14.10;99.90;;;;;;4974022;28;20196;-77
2022/10/08 03:03:49;;;;;;;8.30;2.88;;;14.10;99.90;;;;;;4974094;28;20208;-78
2022/10/08 03:06:17;;;;;;;11.00;3.15;;;14.20;99.90;;;;;;4974257;28;20566;-77
2022/10/08 03:08:48;;;;;;;9.82;2.80;;;14.20;99.90;;;;;;4973832;28;20173;-77
2022/10/08 03:11:14;;;;;;;7.85;2.38;;;14.40;99.90;;;;;;4973474;28;20572;-78
2022/10/08 03:13:44;;;;;;;9.15;2.75;;;14.40;99.90;;;;;;4973561;28;20180;-77
2022/10/08 03:16:13;;;;;;;5.65;2.97;;;14.40;99.90;;;;;;4972425;28;20185;-78
2022/10/08 03:18:40;;;;;;;10.20;2.80;;;14.30;99.90;;;;;;4973550;28;20174;-78
2022/10/08 03:21:08;;;;;;;8.68;2.50;;;14.20;99.90;;;;;;4973659;28;20241;-78
2022/10/08 03:23:34;;;;;;;4.10;2.45;;;14.30;99.90;;;;;;4973975;28;20640;-78
2022/10/08 03:26:00;;;;;;;8.52;2.72;;;14.20;99.90;;;;;;4973542;28;20212;-78
2022/10/08 03:28:26;;;;;;;12.32;2.70;;;14.20;99.90;;;;;;4973313;28;20170;-78
2022/10/08 03:30:51;;;;;;;13.18;3.10;;;14.10;99.90;;;;;;4972195;28;20699;-78
2022/10/08 03:33:17;;;;;;;11.45;3.03;;;14.10;99.90;;;;;;4973656;28;20190;-92
2022/10/08 03:35:44;;;;;;;7.38;2.88;;;14.10;99.90;;;;;;4973597;28;20192;-91
2022/10/08 03:38:10;;;;;;;6.07;2.63;;;14.10;99.90;;;;;;4973728;28;20170;-92
2022/10/08 03:40:36;;;;;;;6.20;2.95;;;14.10;99.90;;;;;;4974567;28;20174;-86
2022/10/08 03:43:01;;;;;;;5.93;2.30;;;14.10;99.90;;;;;;4974133;28;20178;-78
2022/10/08 03:45:27;;;;;;;8.68;2.75;;;14.00;99.90;;;;;;4973921;28;20238;-78
2022/10/08 03:47:54;;;;;;;6.28;2.47;;;14.00;99.90;;;;;;4974573;28;20170;-89
2022/10/08 03:50:20;;;;;;;6.97;2.65;;;14.10;99.90;;;;;;4974691;28;20202;-83
2022/10/08 03:52:46;;;;;;;8.82;2.88;;;14.20;99.90;;;;;;4976874;28;20280;-91
2022/10/08 03:55:12;;;;;;;7.50;2.67;;;14.10;99.90;;;;;;4978068;28;20209;-91
2022/10/08 03:57:37;;;;;;;10.40;2.88;;;14.10;99.90;;;;;;4976706;28;20178;-90
2022/10/08 04:00:03;;;;;;;10.23;2.78;;;14.10;99.90;;;;;;4978199;28;20670;-89
2022/10/08 04:02:31;;;;;;;4.68;2.05;;;14.10;99.90;;;;;;4977938;28;20182;-89
2022/10/08 04:04:56;;;;;;;8.40;3.25;;;13.90;99.90;;;;;;4980026;28;20170;-90
2022/10/08 04:07:22;;;;;;;9.50;3.63;;;13.80;99.90;;;;;;4989177;28;20194;-84
2022/10/08 04:09:47;;;;;;;8.50;2.83;;;13.80;99.90;;;;;;4996555;28;20189;-87
2022/10/08 04:12:13;;;;;;;6.25;3.33;;;13.70;99.90;;;;;;4982693;28;20273;-92
2022/10/08 04:14:39;;;;;;;13.68;3.28;;;13.70;99.90;;;;;;4975489;28;20182;-91
2022/10/08 04:17:04;;;;;;;9.13;2.63;;;13.70;99.90;;;;;;4978341;28;20174;-85
2022/10/08 04:19:30;;;;;;;10.65;2.75;;;13.70;99.90;;;;;;4976808;28;20174;-92
2022/10/08 04:21:55;;;;;;;13.20;3.60;;;13.70;99.90;;;;;;4976776;28;20221;-90
2022/10/08 04:24:21;;;;;;;8.82;3.45;;;13.70;99.90;;;;;;4978098;28;20170;-91
2022/10/08 04:26:46;;;;;;;8.82;3.00;;;13.60;99.90;;;;;;4977521;28;20166;-91
2022/10/08 04:29:12;;;;;;;10.75;3.50;;;13.60;99.90;;;;;;4977375;28;20672;-92
2022/10/08 04:31:39;;;;;;;4.93;2.80;;;13.50;99.90;;;;;;4976594;28;20209;-77
2022/10/08 04:34:04;;;;;;;9.23;3.45;;;13.40;99.90;;;;;;4976581;28;20170;-78
2022/10/08 04:36:31;;;;;;;6.65;2.85;;;13.40;99.90;;;;;;4976679;28;20257;-91
2022/10/08 04:38:56;;;;;;;8.00;3.17;;;13.40;99.90;;;;;;4976262;28;20166;-78
2022/10/08 04:41:24;;;;;;;13.90;3.38;;;13.40;99.90;;;;;;4975846;28;20213;-78
2022/10/08 04:43:51;;;;;;;16.88;3.75;;;13.40;99.90;;;;;;4976257;28;20173;-78
2022/10/08 04:46:19;;;;;;;12.65;3.63;;;13.40;99.90;;;;;;4975892;28;20204;-92
2022/10/08 04:48:50;;;;;;;11.43;3.53;;;13.40;99.90;;;;;;4975907;28;20256;-79
2022/10/08 04:51:17;;;;;;;9.35;3.38;;;13.40;99.90;;;;;;4975829;28;20688;-92
2022/10/08 04:53:43;;;;;;;8.32;3.75;;;13.60;99.90;;;;;;4975721;28;20241;-78
2022/10/08 04:56:10;;;;;;;9.70;3.83;;;13.60;99.90;;;;;;4975719;28;20676;-78
2022/10/08 04:58:36;;;;;;;13.32;3.80;;;13.40;99.90;;;;;;4975726;28;20194;-78
2022/10/08 05:01:07;;;;;;;9.07;3.78;;;13.30;99.90;;;;;;4975763;28;20197;-78
2022/10/08 05:03:44;;;;;;;9.23;3.63;;;13.10;99.90;;;;;;4974614;28;20189;-77
2022/10/08 05:06:11;;;;;;;13.07;3.47;;;13.20;99.90;;;;;;4975339;28;20718;-78
2022/10/08 05:08:37;;;;;;;8.00;3.78;;;13.30;99.90;;;;;;4975489;28;20658;-77
2022/10/08 05:11:03;;;;;;;20.35;4.22;;;13.20;99.90;;;;;;4975357;28;20206;-78
2022/10/08 05:13:28;;;;;;;10.60;4.00;;;13.20;99.90;;;;;;4975627;28;20599;-78
2022/10/08 05:15:54;;;;;;;9.13;3.95;;;13.20;99.90;;;;;;4975576;28;20267;-79
2022/10/08 05:18:20;;;;;;;7.35;3.53;;;13.30;99.90;;;;;;4975519;28;20196;-78
2022/10/08 05:20:46;;;;;;;17.67;4.00;;;13.40;99.90;;;;;;4975454;28;20185;-77
2022/10/08 05:23:12;;;;;;;11.80;4.18;;;13.50;99.90;;;;;;4975792;28;20174;-78
2022/10/08 05:25:37;;;;;;;10.80;3.15;;;13.40;99.90;;;;;;4975669;28;20162;-87
2022/10/08 05:28:03;;;;;;;17.23;4.57;;;13.30;99.90;;;;;;4974200;28;20182;-83
2022/10/08 05:30:29;;;;;;;14.85;4.72;;;13.30;99.90;;;;;;4975324;28;20206;-82
2022/10/08 05:32:55;;;;;;;14.85;4.18;;;13.30;99.90;;;;;;4975575;28;20269;-86
2022/10/08 05:35:20;;;;;;;14.63;4.25;;;13.30;99.90;;;;;;4975294;28;20174;-86
2022/10/08 05:37:46;;;;;;;14.27;5.03;;;13.30;99.90;;;;;;4975200;28;20174;-86
2022/10/08 05:40:11;;;;;;;11.10;4.70;;;13.20;99.90;;;;;;4974944;28;20166;-91
2022/10/08 05:42:37;;;;;;;7.25;3.92;;;13.10;99.90;;;;;;4974824;28;20197;-79
2022/10/08 05:45:03;;;;;;;12.52;4.20;;;13.10;99.90;;;;;;4975322;28;20174;-91
2022/10/08 05:47:29;;;;;;;11.75;4.28;;;13.20;99.90;;;;;;4973936;28;20174;-78
2022/10/08 05:49:54;;;;;;;11.18;3.60;;;13.30;99.90;;;;;;4974932;28;20209;-78
2022/10/08 05:52:20;;;;;;;16.42;5.00;;;13.30;99.90;;;;;;4974873;28;20210;-92
2022/10/08 05:54:45;;;;;;;11.68;4.20;;;13.30;99.90;;;;;;4974948;28;20636;-78
2022/10/08 05:57:11;;;;;;;11.77;4.35;;;13.40;99.90;;;;;;4973956;28;20177;-78
2022/10/08 05:59:37;;;;;;;14.63;4.25;;;13.30;99.90;;;;;;4974921;28;20644;-78
2022/10/08 06:02:02;;;;;;;13.48;4.32;;;13.30;99.90;;;;;;4975191;28;20220;-78
2022/10/08 06:04:28;;;;;;;9.68;4.32;;;13.10;99.90;;;;;;4974906;28;20610;-78
2022/10/08 06:06:54;;;;;;;17.42;5.10;;;13.20;99.90;;;;;;4974969;28;20170;-92
2022/10/08 06:09:21;;;;;;;9.30;4.95;;;13.20;99.90;;;;;;4974679;28;20196;-78
2022/10/08 06:11:47;;;;;;;23.13;5.13;;;13.10;99.90;;;;;;4973555;28;20257;-77
2022/10/08 06:14:15;;;;;;;14.85;4.63;;;13.20;99.90;;;;;;4976009;28;20501;-82
2022/10/08 06:16:41;;;;;;;12.32;4.53;;;13.20;99.90;;;;;;4979991;28;20200;-84
2022/10/08 06:19:08;;;;;;;17.60;4.82;;;13.20;99.90;;;;;;4988651;28;20174;-79
2022/10/08 06:21:35;;;;;;;19.02;4.40;;;13.30;99.90;;;;;;4974970;28;20197;-91
2022/10/08 06:24:06;;;;;;;17.52;4.68;;;13.30;99.90;;;;;;4974327;28;20178;-78
2022/10/08 06:26:37;;;;;;;16.13;4.18;;;13.40;99.90;;;;;;4974435;28;20169;-77
2022/10/08 06:29:09;;;;;;;8.50;5.32;;;13.50;99.90;;;;;;4975317;28;20249;-88
2022/10/08 06:31:35;;;;;;;17.23;4.20;;;13.50;99.90;;;;;;4973220;28;20241;-80
2022/10/08 06:34:03;;;;;;;18.20;5.47;;;13.40;99.90;;;;;;4974895;28;20822;-92
2022/10/08 06:36:29;;;;;;;10.40;4.63;;;13.40;99.90;;;;;;4974656;28;20173;-86
2022/10/08 06:38:57;;;;;;;19.00;5.78;;;13.40;99.90;;;;;;4973270;28;20667;-78
2022/10/08 06:41:24;;;;;;;12.95;5.07;;;13.30;99.90;;;;;;4974520;28;20186;-77
2022/10/08 06:43:50;;;;;;;14.68;6.03;;;13.40;99.90;;;;;;4974803;28;20208;-78
2022/10/08 06:46:17;;;;;;;16.48;5.25;;;13.40;99.90;;;;;;4974233;28;20514;-80
2022/10/08 06:48:42;;;;;;;17.58;5.43;;;13.30;99.90;;;;;;4974479;28;20712;-80
2022/10/08 06:51:14;;;;;;;17.42;6.18;;;13.30;99.90;;;;;;4973251;28;20300;-80
2022/10/08 06:53:41;;;;;;;15.32;5.57;;;13.30;99.90;;;;;;4974180;28;20158;-93
2022/10/08 06:56:10;;;;;;;10.80;5.43;;;13.30;99.90;;;;;;4972718;28;20185;-93
2022/10/08 06:58:36;;;;;;;8.50;5.65;;;13.30;99.90;;;;;;4975091;28;20185;-90
2022/10/08 07:01:06;;;;;;;20.65;6.75;;;13.20;99.90;;;;;;4975169;28;20181;-95
2022/10/08 07:03:32;;;;;;;13.65;6.50;;;13.20;99.90;;;;;;4975350;28;20166;-93
2022/10/08 07:06:03;;;;;;;24.02;6.57;;;13.20;99.90;;;;;;4975131;28;20212;-92
2022/10/08 07:08:30;;;;;;;11.13;5.57;;;13.10;99.90;;;;;;4974939;28;20178;-93
2022/10/08 07:11:04;;;;;;;14.35;6.15;;;13.20;99.90;;;;;;4973957;28;20214;-94
2022/10/08 07:13:29;;;;;;;22.17;6.38;;;13.30;99.90;;;;;;4974309;28;20582;-93
2022/10/08 07:16:13;;;;;;;14.23;6.15;;;13.40;99.90;;;;;;4975321;28;20264;-94
2022/10/08 07:18:40;;;;;;;19.23;6.85;;;13.40;99.90;;;;;;4974263;28;20177;-91
2022/10/08 07:21:07;;;;;;;30.02;7.72;;;13.60;99.90;;;;;;4975153;28;20190;-91
2022/10/08 07:23:33;;;;;;;37.10;7.88;;;13.60;99.90;;;;;;4973934;28;20261;-90
2022/10/08 07:26:02;;;;;;;16.33;5.63;;;13.50;99.90;;;;;;4980465;28;20197;-89
2022/10/08 07:28:32;;;;;;;19.40;5.30;;;13.60;99.90;;;;;;4976334;28;20181;-80
2022/10/08 07:31:05;;;;;;;8.35;4.72;;;13.60;99.90;;;;;;4977361;28;20224;-79
2022/10/08 07:33:32;;;;;;;15.88;4.53;;;13.80;99.90;;;;;;4976058;28;20312;-90
2022/10/08 07:36:18;;;;;;;11.70;3.72;;;13.80;99.90;;;;;;4977374;28;20181;-82
2022/10/08 07:38:44;;;;;;;14.77;4.32;;;14.00;99.90;;;;;;4976006;28;20538;-81
2022/10/08 07:41:11;;;;;;;9.45;4.05;;;14.20;99.90;;;;;;4977244;28;20192;-85
2022/10/08 07:43:40;;;;;;;7.82;3.63;;;14.10;99.90;;;;;;4980458;28;20237;-87
2022/10/08 07:46:07;;;;;;;24.90;4.57;;;14.10;99.90;;;;;;4979424;28;20690;-88
2022/10/08 07:48:34;;;;;;;8.23;3.60;;;14.20;99.90;;;;;;4979124;28;20180;-91
2022/10/08 07:51:14;;;;;;;9.80;3.95;;;14.00;99.90;;;;;;4978796;28;20680;-89
2022/10/08 07:53:40;;;;;;;11.93;3.75;;;13.90;99.90;;;;;;4977817;28;20654;-90
2022/10/08 07:56:06;;;;;;;18.38;5.00;;;13.90;99.90;;;;;;4978926;28;20166;-83
2022/10/08 07:58:32;;;;;;;11.75;3.90;;;13.80;99.90;;;;;;4977258;28;20259;-91
2022/10/08 08:00:59;;;;;;;13.30;6.30;;;14.00;99.90;;;;;;4979035;28;20198;-89
2022/10/08 08:03:25;;;;;;;15.18;4.38;;;14.00;99.90;;;;;;4978445;28;20583;-90
2022/10/08 08:05:52;;;;;;;10.60;3.40;;;14.00;99.90;;;;;;4978797;28;20205;-85
2022/10/08 08:08:25;;;;;;;10.48;3.75;;;14.10;99.90;;;;;;4977963;28;20193;-91
2022/10/08 08:10:58;;;;;;;11.65;4.53;;;14.10;99.90;;;;;;4977381;28;21126;-92
2022/10/08 08:13:24;;;;;;;8.48;3.13;;;14.10;99.90;;;;;;4976829;28;20167;-78
2022/10/08 08:15:57;;;;;;;17.02;3.83;;;14.10;99.90;;;;;;4976554;28;20728;-79
2022/10/08 08:18:23;;;;;;;6.88;2.33;;;14.10;99.90;;;;;;4976281;28;20508;-87
2022/10/08 08:20:48;;;;;;;12.65;3.58;;;14.20;99.90;;;;;;4976627;28;20277;-78
2022/10/08 08:23:14;;;;;;;12.73;2.70;;;14.20;99.90;;;;;;4976441;28;20532;-79
2022/10/08 08:25:39;;;;;;;8.55;3.15;;;14.20;99.90;;;;;;4987481;28;20174;-89
2022/10/08 08:28:05;;;;;;;21.52;3.50;;;14.30;99.90;;;;;;4979040;28;20189;-92
2022/10/08 08:30:30;;;;;;;8.73;2.05;;;14.30;99.90;;;;;;4977815;28;20672;-88
2022/10/08 08:32:57;;;;;;;17.75;2.70;;;14.30;99.90;;;;;;4976570;28;20166;-92
2022/10/08 08:35:22;;;;;;;15.00;3.58;;;14.30;99.90;;;;;;4977899;28;20185;-92
2022/10/08 08:37:48;;;;;;;23.20;2.90;;;14.40;99.90;;;;;;4977673;28;20621;-92
2022/10/08 08:40:13;;;;;;;8.32;2.08;;;14.50;99.90;;;;;;4977356;28;20185;-92
2022/10/08 08:42:52;;;;;;;8.95;3.20;;;14.50;99.90;;;;;;4976999;28;20205;-90
2022/10/08 08:45:27;;;;;;;3.25;1.40;;;14.50;99.90;;;;;;4975720;28;20220;-84
2022/10/08 08:48:19;;;;;;;6.32;1.45;;;14.60;99.90;;;;;;4975919;28;20169;-78
2022/10/08 08:50:47;;;;;;;4.22;1.35;;;14.70;99.90;;;;;;4968944;28;20225;-77
2022/10/08 08:53:13;;;;;;;8.77;1.00;;;14.70;99.90;;;;;;4976084;28;20165;-78
2022/10/08 08:55:52;;;;;;;3.28;1.55;;;14.70;99.90;;;;;;4976166;28;20174;-78
2022/10/08 08:58:34;;;;;;;5.30;1.58;;;14.70;99.90;;;;;;4975713;28;20181;-78
2022/10/08 09:01:08;;;;;;;9.10;1.33;;;14.70;99.90;;;;;;4974183;28;20201;-82
2022/10/08 09:03:43;;;;;;;7.13;1.10;;;14.70;99.90;;;;;;4975520;28;20180;-77
2022/10/08 09:06:13;;;;;;;7.20;1.40;;;14.70;99.90;;;;;;4974346;28;20277;-80
2022/10/08 09:09:00;;;;;;;13.20;1.63;;;14.60;99.90;;;;;;4974534;28;20260;-79
2022/10/08 09:11:28;;;;;;;8.85;1.13;;;14.60;99.90;;;;;;4975413;28;20577;-77
2022/10/08 09:14:03;;;;;;;4.93;1.63;;;14.70;99.90;;;;;;4975218;28;20162;-92
2022/10/08 09:16:28;;;;;;;4.30;1.35;;;14.70;99.90;;;;;;4977020;28;20554;-86
2022/10/08 09:18:54;;;;;;;9.95;1.90;;;14.70;99.90;;;;;;4975585;28;20176;-92
2022/10/08 09:21:22;;;;;;;5.30;1.13;;;14.80;99.90;;;;;;4979419;28;20189;-90
2022/10/08 09:23:47;;;;;;;7.63;1.08;;;14.80;99.90;;;;;;4979148;28;20170;-91
2022/10/08 09:26:18;;;;;;;7.80;1.15;;;14.70;99.90;;;;;;4976338;28;20224;-89
2022/10/08 09:28:49;;;;;;;3.85;1.20;;;14.60;99.90;;;;;;4975755;28;20242;-78
2022/10/08 09:31:28;;;;;;;5.63;1.20;;;14.70;99.90;;;;;;4975213;28;20635;-83
2022/10/08 09:34:03;;;;;;;3.00;1.25;;;14.90;99.90;;;;;;4975657;28;20204;-82
2022/10/08 09:36:40;;;;;;;3.45;1.15;;;15.10;99.90;;;;;;4973693;28;20178;-78
2022/10/08 09:39:21;;;;;;;1.90;1.17;;;15.00;99.90;;;;;;4974799;28;20173;-82
2022/10/08 09:42:05;;;;;;;8.60;1.55;;;15.30;99.90;;;;;;4973508;28;20221;-81
2022/10/08 09:44:56;;;;;;;4.55;1.20;;;15.40;99.90;;;;;;4974500;28;20170;-81
2022/10/08 09:47:26;;;;;;;3.58;1.58;;;15.40;99.90;;;;;;4975419;28;20185;-83
2022/10/08 09:50:15;;;;;;;4.22;1.17;;;15.30;99.90;;;;;;4980526;28;20276;-79
2022/10/08 09:52:41;;;;;;;6.63;1.17;;;15.20;99.90;;;;;;4975355;28;20182;-80
2022/10/08 09:55:15;;;;;;;2.33;1.02;;;15.20;99.90;;;;;;4973769;28;20686;-81
2022/10/08 09:57:45;;;;;;;7.07;0.98;;;15.10;99.90;;;;;;4974408;28;20182;-81
2022/10/08 10:00:24;;;;;;;6.07;1.40;;;15.10;99.90;;;;;;4975159;28;20173;-85
2022/10/08 10:02:55;;;;;;;2.70;1.58;;;14.90;99.90;;;;;;4976354;28;20197;-91
2022/10/08 10:05:24;;;;;;;7.57;1.75;;;14.90;99.90;;;;;;4978057;28;20232;-87
2022/10/08 10:07:50;;;;;;;8.23;1.80;;;15.00;99.90;;;;;;4975771;28;20205;-84
2022/10/08 10:10:33;;;;;;;4.75;2.97;;;15.00;99.90;;;;;;4974377;28;20204;-79
2022/10/08 10:13:11;;;;;;;3.40;1.38;;;15.10;99.90;;;;;;4974291;28;20177;-81
2022/10/08 10:16:04;;;;;;;6.28;1.35;;;15.10;99.90;;;;;;4973019;28;20256;-87
2022/10/08 10:18:47;;;;;;;2.47;1.00;;;15.20;99.90;;;;;;4973330;28;20265;-80
2022/10/08 10:21:20;;;;;;;4.28;0.90;;;15.30;99.90;;;;;;4972704;28;20563;-79
2022/10/08 10:24:28;;;;;;;2.25;1.08;;;15.40;99.90;;;;;;4974019;28;20173;-79
2022/10/08 10:26:59;;;;;;;5.88;0.90;;;15.40;99.90;;;;;;4953358;28;20182;-87
2022/10/08 10:29:29;;;;;;;2.40;0.80;;;15.70;99.90;;;;;;4973279;28;20172;-79
2022/10/08 10:32:05;;;;;;;9.32;1.70;;;15.80;99.90;;;;;;4973930;28;20656;-79
2022/10/08 10:34:38;;;;;;;9.30;1.10;;;15.90;99.90;;;;;;4973923;28;20165;-79
2022/10/08 10:37:36;;;;;;;1.90;0.95;;;15.80;99.90;;;;;;4974531;28;20632;-79
2022/10/08 10:40:32;;;;;;;3.70;1.02;;;15.90;99.90;;;;;;4974582;28;20166;-79
2022/10/08 10:43:39;;;;;;;2.47;1.00;;;16.00;99.90;;;;;;4977755;28;20244;-83
2022/10/08 10:46:17;;;;;;;9.05;1.25;;;16.20;99.90;;;;;;4993937;28;20154;-80
2022/10/08 10:48:50;;;;;;;1.70;0.70;;;16.40;99.90;;;;;;4975844;28;20173;-79
2022/10/08 10:51:19;;;;;;;3.60;0.80;;;16.40;99.90;;;;;;4978439;28;20209;-80
2022/10/08 10:53:51;;;;;;;9.07;1.52;;;16.40;99.90;;;;;;4972581;28;20252;-79
2022/10/08 10:56:19;;;;;;;4.47;2.58;;;16.50;99.90;;;;;;4971890;28;20232;-81
2022/10/08 10:59:07;;;;;;;7.50;1.00;;;16.50;99.90;;;;;;4973440;28;20220;-85
2022/10/08 11:01:39;;;;;;;2.35;1.10;;;16.50;99.90;;;;;;4973006;28;20210;-84
2022/10/08 11:04:16;;;;;;;7.43;0.80;;;16.50;99.90;;;;;;4973123;28;20169;-79
2022/10/08 11:07:00;;;;;;;8.55;1.00;;;16.50;99.90;;;;;;4973957;28;20180;-83
2022/10/08 11:09:48;;;;;;;2.78;0.70;;;16.70;99.90;;;;;;4973121;28;20173;-79
2022/10/08 11:12:28;;;;;;;2.75;1.02;;;16.70;99.90;;;;;;4973769;28;20272;-79
2022/10/08 11:15:16;;;;;;;2.53;0.85;;;16.90;99.90;;;;;;4973393;28;20173;-80
2022/10/08 11:18:06;;;;;;;5.22;0.85;;;16.80;99.90;;;;;;4972959;28;20997;-79
2022/10/08 11:20:43;;;;;;;5.93;0.90;;;16.70;99.90;;;;;;4972288;28;20174;-79
2022/10/08 11:23:40;;;;;;;2.15;0.60;;;16.80;99.90;;;;;;4972349;28;20188;-80
2022/10/08 11:26:39;;;;;;;2.75;1.85;;;16.70;99.90;;;;;;4973553;28;20188;-79
2022/10/08 11:29:18;;;;;;;7.53;2.22;;;16.70;99.90;;;;;;4971643;28;20597;-79
2022/10/08 11:31:49;;;;;;;4.10;1.00;;;16.50;99.90;;;;;;4973471;28;20205;-80
2022/10/08 11:34:24;;;;;;;4.40;0.70;;;16.40;99.90;;;;;;4973227;28;20620;-80
2022/10/08 11:37:20;;;;;;;1.23;1.13;;;16.40;99.90;;;;;;4971895;28;20165;-79
2022/10/08 11:39:51;;;;;;;1.02;0.63;;;16.40;99.90;;;;;;4972292;28;20244;-80
2022/10/08 11:42:26;;;;;;;9.43;1.25;;;16.50;99.90;;;;;;4980806;28;20221;-85
2022/10/08 11:44:51;;;;;;;1.92;0.85;;;16.60;99.90;;;;;;4972926;28;20178;-85
2022/10/08 11:47:42;;;;;;;3.42;1.42;;;16.80;99.90;;;;;;4974345;28;20229;-83
2022/10/08 11:50:40;;;;;;;2.42;1.60;;;17.00;99.90;;;;;;4974101;28;20781;-81
2022/10/08 11:53:08;;;;;;;1.60;0.88;;;16.90;99.90;;;;;;4966901;28;20656;-81
2022/10/08 11:55:36;;;;;;;5.75;0.95;;;16.90;99.90;;;;;;4979482;28;20273;-84
2022/10/08 11:58:06;;;;;;;4.47;1.05;;;16.60;99.90;;;;;;4977410;28;20232;-79
2022/10/08 12:00:59;;;;;;;5.50;1.42;;;16.60;99.90;;;;;;4970282;28;20162;-84
2022/10/08 12:03:36;;;;;;;2.95;0.98;;;16.70;99.90;;;;;;4991491;28;20169;-84
2022/10/08 12:06:22;;;;;;;9.38;1.25;;;16.60;99.90;;;;;;4976717;28;20575;-82
2022/10/08 12:08:59;;;;;;;3.67;0.93;;;16.60;99.90;;;;;;4974143;28;20240;-87
2022/10/08 12:11:31;;;;;;;5.88;1.10;;;16.50;99.90;;;;;;4972649;28;20218;-92
2022/10/08 12:14:23;;;;;;;6.82;1.00;;;16.40;99.90;;;;;;4977507;28;20182;-92
2022/10/08 12:16:55;;;;;;;4.30;1.00;;;16.50;99.90;;;;;;4973849;28;20644;-85
2022/10/08 12:19:35;;;;;;;3.90;1.05;;;16.60;99.90;;;;;;4978967;28;20174;-89
2022/10/08 12:22:16;;;;;;;3.97;1.80;;;16.70;99.90;;;;;;4975170;28;20248;-83
2022/10/08 12:24:45;;;;;;;8.15;1.92;;;16.70;99.90;;;;;;4975108;28;20196;-81
2022/10/08 12:27:16;;;;;;;4.72;1.42;;;16.80;99.90;;;;;;4975330;28;20636;-81
2022/10/08 12:29:55;;;;;;;2.92;1.13;;;17.00;99.90;;;;;;4976676;28;20675;-82
2022/10/08 12:32:26;;;;;;;7.22;1.45;;;17.40;99.90;;;;;;4976494;28;20202;-81
2022/10/08 12:34:53;;;;;;;9.82;1.25;;;17.40;99.90;;;;;;4976681;28;20169;-82
2022/10/08 12:37:27;;;;;;;0.95;0.52;;;17.60;99.90;;;;;;4976232;28;20530;-80
2022/10/08 12:39:54;;;;;;;3.75;0.70;;;17.20;99.90;;;;;;4976280;28;20248;-81
2022/10/08 12:42:25;;;;;;;1.95;0.63;;;17.10;99.90;;;;;;4976081;28;20188;-82
2022/10/08 12:45:21;;;;;;;3.22;0.68;;;17.00;99.90;;;;;;4975836;28;20228;-88
2022/10/08 12:47:59;;;;;;;4.07;0.93;;;17.00;99.90;;;;;;4975489;28;20269;-88
2022/10/08 12:50:44;;;;;;;2.30;0.70;;;17.20;99.90;;;;;;4976819;28;20237;-89
2022/10/08 12:53:13;;;;;;;1.80;0.70;;;17.00;99.90;;;;;;4976943;28;20165;-89
2022/10/08 12:55:47;;;;;;;1.40;0.70;;;17.00;99.90;;;;;;4976396;28;20549;-82
2022/10/08 12:58:17;;;;;;;3.10;0.98;;;16.90;99.90;;;;;;4974379;28;20268;-87
2022/10/08 13:00:48;;;;;;;3.33;1.10;;;16.80;99.90;;;;;;4975429;28;20166;-80
2022/10/08 13:03:17;;;;;;;2.05;1.25;;;16.80;99.90;;;;;;4976012;28;20189;-80
2022/10/08 13:05:43;;;;;;;2.88;1.30;;;16.90;99.90;;;;;;4974828;28;20170;-81
2022/10/08 13:08:30;;;;;;;4.70;1.83;;;17.00;99.90;;;;;;4981666;28;20654;-81
2022/10/08 13:11:01;;;;;;;6.15;1.70;;;17.00;99.90;;;;;;4992451;28;20217;-83